Time;durP1;ratioP1;P1;durP2;ratioP2;P2;SDS_P1;SDS_P2;PMS_P1;PMS_P2;Temp;Humidity;BMP_temperature;BMP_pressure;BME280_temperature;BME280_humidity;BME280_pressure;Samples;Min_cycle;Max_cycle;Signal;HPM_P1;HPM_P2
2023/03/18 00:01:42;;;;;;;12.88;7.80;;;5.70;99.90;;;;;;5066386;28;20045;-63
2023/03/18 00:04:15;;;;;;;14.13;7.57;;;5.70;99.90;;;;;;5063116;28;20051;-63
2023/03/18 00:06:42;;;;;;;10.85;7.40;;;5.60;99.90;;;;;;5065958;28;20053;-63
2023/03/18 00:09:14;;;;;;;14.50;7.32;;;5.70;99.90;;;;;;5062718;28;20098;-63
2023/03/18 00:11:46;;;;;;;14.30;8.43;;;5.70;99.90;;;;;;5058080;28;20029;-64
2023/03/18 00:14:19;;;;;;;12.00;7.57;;;5.60;99.90;;;;;;5060915;28;20113;-64
2023/03/18 00:16:51;;;;;;;12.07;7.45;;;5.60;99.90;;;;;;5067446;28;20503;-63
2023/03/18 00:19:24;;;;;;;14.05;7.32;;;5.60;99.90;;;;;;5065331;28;20052;-63
2023/03/18 00:21:56;;;;;;;14.60;8.15;;;5.50;99.90;;;;;;5064269;28;20033;-63
2023/03/18 00:24:28;;;;;;;12.05;7.18;;;5.50;99.90;;;;;;5064938;28;20098;-63
2023/03/18 00:27:00;;;;;;;12.40;7.88;;;5.40;99.90;;;;;;5058917;28;20048;-63
2023/03/18 00:29:32;;;;;;;12.73;7.78;;;5.40;99.90;;;;;;5037286;28;20037;-63
2023/03/18 00:32:04;;;;;;;13.63;7.13;;;5.40;99.90;;;;;;5062097;28;20041;-62
2023/03/18 00:34:36;;;;;;;15.23;9.02;;;5.40;99.90;;;;;;5061370;28;20036;-62
2023/03/18 00:37:09;;;;;;;9.23;6.80;;;5.40;99.90;;;;;;5059879;28;20506;-62
2023/03/18 00:39:36;;;;;;;12.77;7.75;;;5.40;99.90;;;;;;5062543;28;20059;-62
2023/03/18 00:42:09;;;;;;;12.02;7.32;;;5.40;99.90;;;;;;5066430;28;20040;-62
2023/03/18 00:44:42;;;;;;;10.35;7.05;;;5.30;99.90;;;;;;5049728;28;20509;-63
2023/03/18 00:47:14;;;;;;;12.30;8.05;;;5.30;99.90;;;;;;5063692;28;20099;-62
2023/03/18 00:49:47;;;;;;;25.00;9.50;;;5.40;99.90;;;;;;5065100;28;20045;-63
2023/03/18 00:52:19;;;;;;;11.47;7.60;;;5.30;99.90;;;;;;5051354;28;20052;-62
2023/03/18 00:54:51;;;;;;;10.30;7.25;;;5.30;99.90;;;;;;5046163;28;20320;-62
2023/03/18 00:57:23;;;;;;;13.45;7.43;;;5.20;99.90;;;;;;5064755;28;20037;-62
2023/03/18 00:59:55;;;;;;;13.38;7.55;;;5.20;99.90;;;;;;5053735;28;20100;-63
2023/03/18 01:02:28;;;;;;;11.50;7.95;;;5.30;99.90;;;;;;5049076;28;20044;-62
2023/03/18 01:05:01;;;;;;;13.15;8.13;;;5.30;99.90;;;;;;5061948;28;20476;-62
2023/03/18 01:07:28;;;;;;;15.95;7.82;;;5.20;99.90;;;;;;5067666;28;20044;-62
2023/03/18 01:10:01;;;;;;;13.15;7.30;;;5.20;99.90;;;;;;5057053;28;20036;-62
2023/03/18 01:12:32;;;;;;;12.80;7.43;;;5.20;99.90;;;;;;5046401;28;20057;-62
2023/03/18 01:15:05;;;;;;;11.52;7.45;;;5.20;99.90;;;;;;5076193;28;20048;-63
2023/03/18 01:17:37;;;;;;;13.05;6.63;;;5.10;99.90;;;;;;5050944;28;20521;-63
2023/03/18 01:20:11;;;;;;;10.35;7.22;;;5.00;99.90;;;;;;5043344;28;20055;-63
2023/03/18 01:22:46;;;;;;;11.95;7.13;;;5.00;99.90;;;;;;5063626;28;20051;-62
2023/03/18 01:25:19;;;;;;;12.10;6.90;;;5.00;99.90;;;;;;5058489;28;20040;-62
2023/03/18 01:27:53;;;;;;;11.30;6.70;;;5.00;99.90;;;;;;5075330;28;20597;-62
2023/03/18 01:30:27;;;;;;;11.75;7.07;;;5.00;99.90;;;;;;5065811;28;20036;-62
2023/03/18 01:32:59;;;;;;;13.00;6.95;;;4.90;99.90;;;;;;5056609;28;20037;-63
2023/03/18 01:35:31;;;;;;;11.85;6.82;;;4.90;99.90;;;;;;5065413;28;20025;-62
2023/03/18 01:38:04;;;;;;;12.55;7.18;;;4.90;99.90;;;;;;5048868;28;20558;-62
2023/03/18 01:40:39;;;;;;;9.55;6.55;;;4.90;99.90;;;;;;5046290;28;20052;-62
2023/03/18 01:43:21;;;;;;;11.48;6.80;;;4.90;99.90;;;;;;5046820;28;20072;-62
2023/03/18 01:45:57;;;;;;;15.32;7.43;;;4.90;99.90;;;;;;5061791;28;20036;-62
2023/03/18 01:48:28;;;;;;;13.98;6.63;;;4.90;99.90;;;;;;5071595;28;20424;-63
2023/03/18 01:51:07;;;;;;;13.30;7.40;;;4.90;99.90;;;;;;5048562;28;20079;-63
2023/03/18 01:53:44;;;;;;;14.13;6.72;;;4.90;99.90;;;;;;5069455;28;20048;-63
2023/03/18 01:56:12;;;;;;;10.57;6.80;;;4.90;99.90;;;;;;5067836;28;20409;-62
2023/03/18 01:58:48;;;;;;;13.07;6.82;;;4.90;99.90;;;;;;5073855;28;20048;-62
2023/03/18 02:01:36;;;;;;;13.73;7.15;;;4.80;99.90;;;;;;5067798;28;20413;-62
2023/03/18 02:04:10;;;;;;;10.15;6.40;;;4.80;99.90;;;;;;5054916;28;20101;-62
2023/03/18 02:06:42;;;;;;;11.93;6.70;;;4.80;99.90;;;;;;5063794;28;20056;-62
2023/03/18 02:09:15;;;;;;;12.68;7.30;;;4.80;99.90;;;;;;5026601;28;20519;-63
2023/03/18 02:11:48;;;;;;;10.68;6.65;;;4.80;99.90;;;;;;5072754;28;20705;-62
2023/03/18 02:14:24;;;;;;;10.68;6.75;;;4.80;99.90;;;;;;5055274;28;20119;-62
2023/03/18 02:17:01;;;;;;;9.20;5.60;;;4.80;99.90;;;;;;5051357;28;20048;-62
2023/03/18 02:19:59;;;;;;;11.48;5.88;;;4.80;99.90;;;;;;5048086;28;20734;-63
2023/03/18 02:22:56;;;;;;;9.75;6.63;;;4.80;99.90;;;;;;5062577;28;20072;-62
2023/03/18 02:26:14;;;;;;;9.63;6.55;;;4.80;99.90;;;;;;5053961;28;20041;-62
2023/03/18 02:28:50;;;;;;;9.75;5.63;;;4.80;99.90;;;;;;5036833;28;20051;-63
2023/03/18 02:31:18;;;;;;;11.77;6.53;;;4.80;99.90;;;;;;5046514;28;20485;-63
2023/03/18 02:33:50;;;;;;;11.32;5.63;;;4.80;99.90;;;;;;5071865;28;20024;-62
2023/03/18 02:36:27;;;;;;;9.27;5.68;;;4.80;99.90;;;;;;5070372;28;20037;-63
2023/03/18 02:39:01;;;;;;;12.07;5.70;;;4.80;99.90;;;;;;5037207;28;20527;-62
2023/03/18 02:41:34;;;;;;;9.75;5.75;;;4.80;99.90;;;;;;5068402;28;20044;-62
2023/03/18 02:44:06;;;;;;;12.43;5.85;;;4.80;99.90;;;;;;5055692;28;20140;-62
2023/03/18 02:46:56;;;;;;;8.32;5.00;;;4.80;99.90;;;;;;5056592;28;20093;-63
2023/03/18 02:49:29;;;;;;;9.48;4.60;;;4.80;99.90;;;;;;5072823;28;20040;-63
2023/03/18 02:52:01;;;;;;;9.45;4.75;;;4.90;99.90;;;;;;5040759;28;20044;-63
2023/03/18 02:54:33;;;;;;;10.55;5.00;;;4.90;99.90;;;;;;5045288;28;20037;-63
2023/03/18 02:57:06;;;;;;;9.13;5.72;;;4.90;99.90;;;;;;5066899;28;20044;-63
2023/03/18 02:59:40;;;;;;;8.65;6.00;;;4.90;99.90;;;;;;5051335;28;20045;-63
2023/03/18 03:02:12;;;;;;;8.65;6.10;;;4.90;99.90;;;;;;5052665;28;20041;-63
2023/03/18 03:04:44;;;;;;;11.73;7.72;;;4.90;99.90;;;;;;5066982;28;20036;-62
2023/03/18 03:07:14;;;;;;;11.73;7.50;;;4.80;99.90;;;;;;5042387;28;20512;-62
2023/03/18 03:09:50;;;;;;;15.73;7.22;;;4.80;99.90;;;;;;5047863;28;20044;-62
2023/03/18 03:12:21;;;;;;;12.13;7.40;;;4.80;99.90;;;;;;5041838;28;20044;-62
2023/03/18 03:14:56;;;;;;;11.43;7.03;;;4.80;99.90;;;;;;5063762;28;20513;-63
2023/03/18 03:17:24;;;;;;;10.98;7.95;;;4.80;99.90;;;;;;5044734;28;20053;-62
2023/03/18 03:19:56;;;;;;;12.65;7.68;;;4.80;99.90;;;;;;5055882;28;20044;-63
2023/03/18 03:22:29;;;;;;;15.18;7.78;;;4.80;99.90;;;;;;5064901;28;20045;-62
2023/03/18 03:25:01;;;;;;;12.98;8.25;;;4.80;99.90;;;;;;5037548;28;20048;-63
2023/03/18 03:27:33;;;;;;;11.52;7.50;;;4.80;99.90;;;;;;5049646;28;20394;-62
2023/03/18 03:30:08;;;;;;;11.10;7.30;;;4.80;99.90;;;;;;5041901;28;20041;-63
2023/03/18 03:32:41;;;;;;;15.10;8.02;;;4.80;99.90;;;;;;5063069;28;20049;-62
2023/03/18 03:35:17;;;;;;;12.38;7.20;;;4.80;99.90;;;;;;5042318;28;20040;-63
2023/03/18 03:37:50;;;;;;;10.50;7.22;;;4.80;99.90;;;;;;5062717;28;20040;-63
2023/03/18 03:40:22;;;;;;;10.40;6.57;;;4.80;99.90;;;;;;5064086;28;20045;-62
2023/03/18 03:42:54;;;;;;;11.55;7.03;;;4.70;99.90;;;;;;5067520;28;20454;-63
2023/03/18 03:45:26;;;;;;;11.15;7.13;;;4.70;99.90;;;;;;5048383;28;20045;-63
2023/03/18 03:47:59;;;;;;;14.13;7.85;;;4.70;99.90;;;;;;5045567;28;20041;-62
2023/03/18 03:50:31;;;;;;;10.85;7.35;;;4.70;99.90;;;;;;5048396;28;20037;-62
2023/03/18 03:53:03;;;;;;;16.13;8.13;;;4.70;99.90;;;;;;5054273;28;20036;-62
2023/03/18 03:55:35;;;;;;;10.55;7.13;;;4.70;99.90;;;;;;5046557;28;20032;-62
2023/03/18 03:58:08;;;;;;;11.37;7.43;;;4.70;99.90;;;;;;5059669;28;20107;-62
2023/03/18 04:00:40;;;;;;;10.82;7.32;;;4.70;99.90;;;;;;5060338;28;20287;-62
2023/03/18 04:03:12;;;;;;;11.40;6.30;;;4.70;99.90;;;;;;5059112;28;20099;-63
2023/03/18 04:05:44;;;;;;;10.30;6.50;;;4.70;99.90;;;;;;5047082;28;20043;-62
2023/03/18 04:08:19;;;;;;;10.30;5.90;;;4.70;99.90;;;;;;5055224;28;20040;-63
2023/03/18 04:10:52;;;;;;;11.15;6.88;;;4.70;99.90;;;;;;5057003;28;20044;-63
2023/03/18 04:13:23;;;;;;;8.32;5.30;;;4.60;99.90;;;;;;5061104;28;20555;-62
2023/03/18 04:15:55;;;;;;;11.95;6.68;;;4.60;99.90;;;;;;5050921;28;20041;-63
2023/03/18 04:18:28;;;;;;;15.07;5.97;;;4.60;99.90;;;;;;5051716;28;20075;-62
2023/03/18 04:21:00;;;;;;;8.93;4.78;;;4.60;99.90;;;;;;5058963;28;20449;-62
2023/03/18 04:23:41;;;;;;;7.97;4.55;;;4.60;99.90;;;;;;5063282;28;20043;-62
2023/03/18 04:26:15;;;;;;;;;;;4.60;99.90;;;;;;5043365;28;20515;-62
2023/03/18 04:28:47;;;;;;;6.82;4.05;;;4.70;99.90;;;;;;5054718;28;19932;-62
2023/03/18 04:31:20;;;;;;;8.57;3.80;;;4.60;99.90;;;;;;5063623;28;20059;-63
2023/03/18 04:33:52;;;;;;;6.78;3.95;;;4.60;99.90;;;;;;5063034;28;20032;-62
2023/03/18 04:36:25;;;;;;;8.48;4.22;;;4.60;99.90;;;;;;5062814;28;20135;-63
2023/03/18 04:38:57;;;;;;;8.35;4.57;;;4.60;99.90;;;;;;5055291;28;20131;-63
2023/03/18 04:41:29;;;;;;;8.90;3.95;;;4.60;99.90;;;;;;5064841;28;20052;-62
2023/03/18 04:44:03;;;;;;;9.85;4.22;;;4.60;99.90;;;;;;5054634;28;20061;-63
2023/03/18 04:46:46;;;;;;;8.13;4.85;;;4.60;99.90;;;;;;5043317;28;20053;-62
2023/03/18 04:49:19;;;;;;;8.82;4.32;;;4.60;99.90;;;;;;5059703;28;20102;-62
2023/03/18 04:51:52;;;;;;;;;;;4.60;99.90;;;;;;5040077;28;20117;-62
2023/03/18 04:54:30;;;;;;;13.43;7.38;;;4.60;99.90;;;;;;5063813;28;19924;-62
2023/03/18 04:57:05;;;;;;;15.20;7.47;;;4.50;99.90;;;;;;5050336;28;20059;-62
2023/03/18 04:59:44;;;;;;;9.23;6.28;;;4.50;99.90;;;;;;5065068;28;20049;-62
2023/03/18 05:02:16;;;;;;;8.48;5.20;;;4.50;99.90;;;;;;5062059;28;20459;-62
2023/03/18 05:04:48;;;;;;;10.57;6.03;;;4.50;99.90;;;;;;5049086;28;20163;-63
2023/03/18 05:07:20;;;;;;;11.65;7.90;;;4.50;99.90;;;;;;5043479;28;20036;-63
2023/03/18 05:09:59;;;;;;;12.60;8.10;;;4.50;99.90;;;;;;5049603;28;20037;-62
2023/03/18 05:12:31;;;;;;;12.88;7.40;;;4.50;99.90;;;;;;5057518;28;20094;-62
2023/03/18 05:15:05;;;;;;;11.55;7.90;;;4.50;99.90;;;;;;5035888;28;20040;-62
2023/03/18 05:17:42;;;;;;;13.43;7.80;;;4.50;99.90;;;;;;5048928;28;20048;-62
2023/03/18 05:20:14;;;;;;;12.27;8.07;;;4.50;99.90;;;;;;5046001;28;20044;-62
2023/03/18 05:22:46;;;;;;;11.88;8.63;;;4.50;99.90;;;;;;5057416;28;20051;-62
2023/03/18 05:25:50;;;;;;;24.08;14.40;;;4.50;99.90;;;;;;5050386;28;20097;-63
2023/03/18 05:28:25;;;;;;;28.00;16.38;;;4.50;99.90;;;;;;5059359;28;20453;-63
2023/03/18 05:31:10;;;;;;;27.25;15.95;;;4.40;99.90;;;;;;5039093;28;20538;-62
2023/03/18 05:33:41;;;;;;;23.50;13.32;;;4.40;99.90;;;;;;5051362;28;20531;-62
2023/03/18 05:36:13;;;;;;;17.35;11.20;;;4.40;99.90;;;;;;5050907;28;20044;-62
2023/03/18 05:38:54;;;;;;;14.20;9.57;;;4.40;99.90;;;;;;5054867;28;20040;-63
2023/03/18 05:41:26;;;;;;;12.35;8.55;;;4.40;99.90;;;;;;5049550;28;20432;-63
2023/03/18 05:43:58;;;;;;;12.05;7.13;;;4.30;99.90;;;;;;5056556;28;20526;-62
2023/03/18 05:46:35;;;;;;;12.38;7.13;;;4.30;99.90;;;;;;5045027;28;20509;-63
2023/03/18 05:49:15;;;;;;;10.05;7.43;;;4.30;99.90;;;;;;5063189;28;20065;-63
2023/03/18 05:52:11;;;;;;;10.88;6.63;;;4.30;99.90;;;;;;5039687;28;20045;-62
2023/03/18 05:54:45;;;;;;;7.80;5.07;;;4.30;99.90;;;;;;5062684;28;20045;-62
2023/03/18 05:57:16;;;;;;;6.88;5.07;;;4.30;99.90;;;;;;5048400;28;20036;-62
2023/03/18 05:59:51;;;;;;;5.03;3.50;;;4.30;99.90;;;;;;5072859;28;20651;-63
2023/03/18 06:02:25;;;;;;;6.30;3.20;;;4.30;99.90;;;;;;5076295;28;20049;-63
2023/03/18 06:04:57;;;;;;;5.85;3.08;;;4.30;99.90;;;;;;5063625;28;20440;-62
2023/03/18 06:07:29;;;;;;;6.95;3.17;;;4.30;99.90;;;;;;5055226;28;20539;-62
2023/03/18 06:10:01;;;;;;;6.47;3.10;;;4.40;99.90;;;;;;5054354;28;20124;-62
2023/03/18 06:12:33;;;;;;;5.40;2.95;;;4.40;99.90;;;;;;5067235;28;20041;-62
2023/03/18 06:15:00;;;;;;;6.47;3.38;;;4.40;99.90;;;;;;5060424;28;20513;-63
2023/03/18 06:17:32;;;;;;;4.72;2.55;;;4.50;99.90;;;;;;5059374;28;20032;-62
2023/03/18 06:20:08;;;;;;;6.82;3.47;;;4.50;99.90;;;;;;5051728;28;20143;-62
2023/03/18 06:22:35;;;;;;;7.00;2.55;;;4.60;99.90;;;;;;5077065;28;20044;-62
2023/03/18 06:25:06;;;;;;;5.57;3.00;;;4.60;99.90;;;;;;5050644;28;20044;-62
2023/03/18 06:27:38;;;;;;;13.20;3.80;;;4.60;99.90;;;;;;5048121;28;20052;-62
2023/03/18 06:30:12;;;;;;;7.05;2.85;;;4.70;99.90;;;;;;5039850;28;20114;-62
2023/03/18 06:32:44;;;;;;;6.63;3.17;;;4.70;99.90;;;;;;5043112;28;20124;-63
2023/03/18 06:35:17;;;;;;;6.28;2.97;;;4.70;99.90;;;;;;5047530;28;20041;-63
2023/03/18 06:37:49;;;;;;;6.13;2.38;;;4.80;99.90;;;;;;5060490;28;20056;-63
2023/03/18 06:40:23;;;;;;;10.35;4.22;;;4.90;99.90;;;;;;5049203;28;20065;-63
2023/03/18 06:42:56;;;;;;;12.40;7.05;;;5.00;99.90;;;;;;5048727;28;20094;-63
2023/03/18 06:45:34;;;;;;;15.15;6.35;;;5.00;99.90;;;;;;5053948;28;20592;-62
2023/03/18 06:48:09;;;;;;;49.38;21.95;;;5.00;99.90;;;;;;5042052;28;20067;-63
2023/03/18 06:50:42;;;;;;;19.33;12.63;;;5.10;99.90;;;;;;5052286;28;20044;-63
2023/03/18 06:53:30;;;;;;;18.30;10.50;;;5.00;99.90;;;;;;5053783;28;20044;-63
2023/03/18 06:56:03;;;;;;;19.27;10.45;;;5.00;99.90;;;;;;5041802;28;20250;-62
2023/03/18 06:58:48;;;;;;;21.38;11.10;;;5.00;99.90;;;;;;5055250;28;20036;-62
2023/03/18 07:01:20;;;;;;;19.13;12.75;;;5.00;99.90;;;;;;5065023;28;20062;-63
2023/03/18 07:03:53;;;;;;;27.52;17.30;;;5.00;99.90;;;;;;5035031;28;20058;-62
2023/03/18 07:06:27;;;;;;;30.20;20.42;;;5.00;99.90;;;;;;5049982;28;20052;-63
2023/03/18 07:08:53;;;;;;;21.70;14.55;;;5.00;99.90;;;;;;5051687;28;20044;-63
2023/03/18 07:11:26;;;;;;;23.50;15.88;;;5.10;99.90;;;;;;5049319;28;20479;-63
2023/03/18 07:14:05;;;;;;;27.50;17.25;;;5.10;99.90;;;;;;5050419;28;20036;-62
2023/03/18 07:16:37;;;;;;;25.05;17.75;;;5.20;99.90;;;;;;5047531;28;20205;-62
2023/03/18 07:19:10;;;;;;;22.83;14.70;;;5.20;99.90;;;;;;5068294;28;20040;-63
2023/03/18 07:21:44;;;;;;;22.45;14.88;;;5.30;99.90;;;;;;5064224;28;20702;-63
2023/03/18 07:24:19;;;;;;;20.95;13.25;;;5.40;99.90;;;;;;5046661;28;20133;-63
2023/03/18 07:26:52;;;;;;;19.73;13.00;;;5.40;99.90;;;;;;5070454;28;20036;-62
2023/03/18 07:29:24;;;;;;;24.00;14.70;;;5.50;99.90;;;;;;5064457;28;20041;-63
2023/03/18 07:31:56;;;;;;;25.48;18.27;;;5.50;99.90;;;;;;5048552;28;20625;-63
2023/03/18 07:34:27;;;;;;;23.80;16.25;;;5.60;99.90;;;;;;5032097;28;20048;-63
2023/03/18 07:36:59;;;;;;;26.83;16.92;;;5.60;99.90;;;;;;5053607;28;20507;-63
2023/03/18 07:39:32;;;;;;;35.92;18.27;;;5.70;99.90;;;;;;5049669;28;20044;-62
2023/03/18 07:42:04;;;;;;;23.27;13.95;;;5.80;99.90;;;;;;5052226;28;20117;-63
2023/03/18 07:44:36;;;;;;;30.98;18.00;;;5.80;99.90;;;;;;5067979;28;20097;-62
2023/03/18 07:47:08;;;;;;;26.27;18.60;;;5.90;99.90;;;;;;5050300;28;20040;-63
2023/03/18 07:49:40;;;;;;;20.98;11.70;;;5.90;99.90;;;;;;5068263;28;20044;-63
2023/03/18 07:52:12;;;;;;;19.67;12.65;;;6.00;99.90;;;;;;5066744;28;20090;-62
2023/03/18 07:54:39;;;;;;;19.10;10.38;;;6.00;99.90;;;;;;5054123;28;20048;-62
2023/03/18 07:57:11;;;;;;;13.55;9.50;;;6.10;99.90;;;;;;5065290;28;20037;-63
2023/03/18 07:59:43;;;;;;;15.73;10.32;;;6.20;99.90;;;;;;5066221;28;20043;-63
2023/03/18 08:02:13;;;;;;;17.50;12.32;;;6.30;99.90;;;;;;5066077;28;20036;-63
2023/03/18 08:04:45;;;;;;;17.67;8.63;;;6.40;99.90;;;;;;5051486;28;20896;-62
2023/03/18 08:07:17;;;;;;;14.82;8.90;;;6.60;99.90;;;;;;5051617;28;20063;-62
2023/03/18 08:09:49;;;;;;;11.75;7.97;;;6.70;99.90;;;;;;5067881;28;20063;-70
2023/03/18 08:12:21;;;;;;;15.00;8.20;;;6.80;99.90;;;;;;5066510;28;20040;-63
2023/03/18 08:14:53;;;;;;;24.58;11.70;;;6.90;99.90;;;;;;5066628;28;20074;-63
2023/03/18 08:17:25;;;;;;;22.15;10.23;;;7.00;99.90;;;;;;5066632;28;20041;-62
2023/03/18 08:19:57;;;;;;;20.85;9.48;;;7.20;99.90;;;;;;5052905;28;20048;-62
2023/03/18 08:22:24;;;;;;;14.95;10.20;;;7.50;99.90;;;;;;5049732;28;20043;-62
2023/03/18 08:24:51;;;;;;;15.82;8.68;;;7.60;99.90;;;;;;5050240;28;20147;-63
2023/03/18 08:27:23;;;;;;;21.55;12.50;;;7.80;99.90;;;;;;5064318;28;20063;-63
2023/03/18 08:29:50;;;;;;;16.33;10.02;;;7.80;99.90;;;;;;5048828;28;20560;-63
2023/03/18 08:32:22;;;;;;;14.77;10.30;;;7.90;99.90;;;;;;5061029;28;20029;-63
2023/03/18 08:34:53;;;;;;;12.88;8.02;;;8.00;99.90;;;;;;5069075;28;20049;-63
2023/03/18 08:37:27;;;;;;;11.75;8.07;;;8.10;99.90;;;;;;5032446;28;20052;-63
2023/03/18 08:39:59;;;;;;;16.23;8.43;;;8.20;99.90;;;;;;5059322;28;20052;-63
2023/03/18 08:42:31;;;;;;;14.20;8.73;;;8.30;99.90;;;;;;5055036;28;20048;-63
2023/03/18 08:45:03;;;;;;;7.65;5.45;;;8.50;99.90;;;;;;5065322;28;20044;-63
2023/03/18 08:47:35;;;;;;;8.15;6.25;;;8.60;99.90;;;;;;5068150;28;20073;-63
2023/03/18 08:50:07;;;;;;;12.63;6.03;;;8.80;99.90;;;;;;5057071;28;20040;-63
2023/03/18 08:52:40;;;;;;;12.80;6.35;;;9.00;99.90;;;;;;5062708;28;20036;-62
2023/03/18 08:55:11;;;;;;;9.55;5.30;;;9.20;99.90;;;;;;5064160;28;20451;-63
2023/03/18 08:57:43;;;;;;;9.55;6.15;;;9.40;99.90;;;;;;5065912;28;20059;-63
2023/03/18 09:00:16;;;;;;;9.43;4.55;;;9.50;99.90;;;;;;5047225;28;20444;-63
2023/03/18 09:02:48;;;;;;;7.55;4.70;;;9.70;99.90;;;;;;5065660;28;20051;-63
2023/03/18 09:05:20;;;;;;;8.50;4.50;;;9.90;99.90;;;;;;5065241;28;20451;-63
2023/03/18 09:07:52;;;;;;;7.43;4.43;;;10.00;99.90;;;;;;5064938;28;20033;-63
2023/03/18 09:10:25;;;;;;;7.13;4.38;;;10.20;99.90;;;;;;5044420;28;20187;-63
2023/03/18 09:12:57;;;;;;;8.23;4.32;;;10.30;99.90;;;;;;5047111;28;20479;-63
2023/03/18 09:15:30;;;;;;;6.35;3.40;;;10.40;99.90;;;;;;5068459;28;20045;-63
2023/03/18 09:18:02;;;;;;;8.93;3.37;;;10.50;99.90;;;;;;5072062;28;20526;-63
2023/03/18 09:20:34;;;;;;;5.30;3.72;;;10.70;99.90;;;;;;5050688;28;20298;-63
2023/03/18 09:23:07;;;;;;;8.75;3.92;;;10.80;99.90;;;;;;5050468;28;20037;-63
2023/03/18 09:25:41;;;;;;;6.25;3.80;;;11.00;99.90;;;;;;5067290;28;20044;-64
2023/03/18 09:28:13;;;;;;;6.53;3.63;;;11.20;99.90;;;;;;5058655;28;20068;-63
2023/03/18 09:30:45;;;;;;;6.43;3.88;;;11.30;99.90;;;;;;5068006;28;20086;-63
2023/03/18 09:33:12;;;;;;;7.15;4.55;;;11.50;99.90;;;;;;5063644;28;20037;-63
2023/03/18 09:35:44;;;;;;;9.77;4.10;;;11.60;99.90;;;;;;5053863;28;20098;-63
2023/03/18 09:38:18;;;;;;;10.63;4.22;;;11.70;99.90;;;;;;5068610;28;20033;-63
2023/03/18 09:41:00;;;;;;;6.05;4.43;;;11.80;99.90;;;;;;5067513;28;20086;-63
2023/03/18 09:43:32;;;;;;;9.23;3.80;;;12.00;99.90;;;;;;5056795;28;20048;-63
2023/03/18 09:46:36;;;;;;;7.07;4.05;;;12.10;99.90;;;;;;5048608;28;20064;-63
2023/03/18 09:49:25;;;;;;;8.75;3.88;;;12.30;99.90;;;;;;5066304;28;20589;-63
2023/03/18 09:52:24;;;;;;;11.18;4.13;;;12.50;99.90;;;;;;5065403;28;20083;-63
2023/03/18 09:54:56;;;;;;;5.90;3.83;;;12.60;99.90;;;;;;5051665;28;20041;-63
2023/03/18 09:57:32;;;;;;;7.20;4.20;;;12.80;99.90;;;;;;5058996;28;20408;-63
2023/03/18 10:00:10;;;;;;;10.10;4.18;;;12.90;99.90;;;;;;5068346;28;20062;-63
2023/03/18 10:02:54;;;;;;;6.53;4.15;;;13.00;99.90;;;;;;5067566;28;20435;-63
2023/03/18 10:05:32;;;;;;;5.75;3.75;;;13.20;99.90;;;;;;5068966;28;20444;-63
2023/03/18 10:08:16;;;;;;;8.15;4.18;;;13.30;99.90;;;;;;5066821;28;20036;-63
2023/03/18 10:10:48;;;;;;;8.35;3.72;;;13.40;99.90;;;;;;5057742;28;20036;-63
2023/03/18 10:13:43;;;;;;;7.85;3.67;;;13.60;99.90;;;;;;5065293;28;20044;-63
2023/03/18 10:16:24;;;;;;;8.07;3.47;;;13.70;99.90;;;;;;5066829;28;20040;-63
2023/03/18 10:18:56;;;;;;;5.97;2.70;;;13.90;99.90;;;;;;5061554;28;20103;-63
2023/03/18 10:21:39;;;;;;;7.57;2.88;;;14.00;99.90;;;;;;5060974;28;20056;-63
2023/03/18 10:24:20;;;;;;;8.93;3.40;;;14.10;99.90;;;;;;5049355;28;20097;-63
2023/03/18 10:27:18;;;;;;;9.82;3.92;;;14.20;99.90;;;;;;5068973;28;20103;-63
2023/03/18 10:30:17;;;;;;;9.68;3.42;;;14.40;99.90;;;;;;5039704;28;20049;-63
2023/03/18 10:33:02;;;;;;;4.93;3.17;;;14.50;99.90;;;;;;5066126;28;20040;-63
2023/03/18 10:35:45;;;;;;;4.45;3.03;;;14.60;99.90;;;;;;5068819;28;20085;-63
2023/03/18 10:38:17;;;;;;;5.78;3.70;;;14.60;99.90;;;;;;5053899;28;20040;-63
2023/03/18 10:40:49;;;;;;;5.75;2.90;;;14.60;99.90;;;;;;5062411;28;20049;-63
2023/03/18 10:43:27;;;;;;;7.22;3.17;;;14.70;99.90;;;;;;5060455;28;20095;-64
2023/03/18 10:46:03;;;;;;;6.80;3.75;;;14.70;99.90;;;;;;5072712;28;20044;-63
2023/03/18 10:48:41;;;;;;;10.80;3.78;;;14.90;99.90;;;;;;5064650;28;20048;-63
2023/03/18 10:51:31;;;;;;;8.25;4.32;;;15.00;99.90;;;;;;5068237;28;20032;-63
2023/03/18 10:54:12;;;;;;;6.32;3.47;;;15.10;99.90;;;;;;5063633;28;20048;-63
2023/03/18 10:56:44;;;;;;;5.75;3.45;;;15.20;99.90;;;;;;5064139;28;20040;-63
2023/03/18 10:59:17;;;;;;;7.65;4.30;;;15.30;99.90;;;;;;5059395;28;20033;-63
2023/03/18 11:02:05;;;;;;;6.18;3.72;;;15.40;99.90;;;;;;5064500;28;20049;-62
2023/03/18 11:05:10;;;;;;;4.75;3.05;;;15.40;99.90;;;;;;5059763;28;20048;-63
2023/03/18 11:08:27;;;;;;;8.60;3.33;;;15.50;99.90;;;;;;5075071;28;20053;-63
2023/03/18 11:11:16;;;;;;;7.90;3.50;;;15.60;99.90;;;;;;5042424;28;20044;-63
2023/03/18 11:13:54;;;;;;;6.88;3.53;;;15.60;99.90;;;;;;5048548;28;20036;-63
2023/03/18 11:16:36;;;;;;;5.60;3.80;;;15.70;99.90;;;;;;5066056;28;20033;-63
2023/03/18 11:19:40;;;;;;;6.10;3.75;;;15.80;99.90;;;;;;5064886;28;20462;-63
2023/03/18 11:22:22;;;;;;;7.18;3.75;;;15.90;99.90;;;;;;5060569;28;20045;-63
2023/03/18 11:25:12;;;;;;;7.05;3.97;;;15.90;99.90;;;;;;5065645;28;20045;-63
2023/03/18 11:27:50;;;;;;;7.22;4.25;;;16.00;99.90;;;;;;5058379;28;20052;-63
2023/03/18 11:30:27;;;;;;;6.90;4.35;;;16.00;99.90;;;;;;5068325;28;20086;-63
2023/03/18 11:33:09;;;;;;;7.13;3.97;;;16.10;99.90;;;;;;5064032;28;20399;-63
2023/03/18 11:35:49;;;;;;;6.18;4.13;;;16.20;99.90;;;;;;5052792;28;20044;-63
2023/03/18 11:38:47;;;;;;;5.68;3.97;;;16.30;99.90;;;;;;5048877;28;20045;-63
2023/03/18 11:41:24;;;;;;;6.70;4.22;;;16.30;99.90;;;;;;5048173;28;20056;-63
2023/03/18 11:44:00;;;;;;;7.63;4.80;;;16.50;99.90;;;;;;5045632;28;20049;-63
2023/03/18 11:46:37;;;;;;;8.20;4.78;;;16.60;99.40;;;;;;5046253;28;20098;-63
2023/03/18 11:49:05;;;;;;;8.20;4.55;;;16.70;99.00;;;;;;5063255;28;20044;-63
2023/03/18 11:51:58;;;;;;;7.40;4.28;;;16.70;98.90;;;;;;5070203;28;20083;-62
2023/03/18 11:54:44;;;;;;;7.65;4.55;;;16.70;98.20;;;;;;5067685;28;20036;-63
2023/03/18 11:57:45;;;;;;;9.23;4.22;;;16.70;98.20;;;;;;5047770;28;20028;-63
2023/03/18 12:00:36;;;;;;;9.00;5.65;;;16.70;98.60;;;;;;5072489;28;20040;-63
2023/03/18 12:03:50;;;;;;;8.65;4.43;;;16.80;98.20;;;;;;5064906;28;20483;-63
2023/03/18 12:06:23;;;;;;;7.57;4.35;;;16.80;97.30;;;;;;5062833;28;20052;-63
2023/03/18 12:09:18;;;;;;;7.25;4.85;;;16.80;96.80;;;;;;5065690;28;20040;-64
2023/03/18 12:12:27;;;;;;;7.75;4.25;;;16.80;97.20;;;;;;5061286;28;20102;-63
2023/03/18 12:15:28;;;;;;;8.23;4.40;;;16.80;96.60;;;;;;5075708;28;20041;-63
2023/03/18 12:18:26;;;;;;;7.15;4.38;;;16.80;97.10;;;;;;5044714;28;20056;-63
2023/03/18 12:20:59;;;;;;;9.38;4.22;;;16.90;96.00;;;;;;5061713;28;20046;-63
2023/03/18 12:24:04;;;;;;;6.63;4.45;;;17.00;96.30;;;;;;5064882;28;20044;-63
2023/03/18 12:26:58;;;;;;;7.15;4.53;;;17.10;95.90;;;;;;5062378;28;20041;-63
2023/03/18 12:29:30;;;;;;;;;;;17.20;96.30;;;;;;5062785;28;20044;-63
2023/03/18 12:32:34;;;;;;;8.73;4.88;;;17.30;96.60;;;;;;5045135;28;20011;-63
2023/03/18 12:35:45;;;;;;;9.00;4.20;;;17.40;94.80;;;;;;5067021;28;20037;-63
2023/03/18 12:38:30;;;;;;;8.90;4.38;;;17.40;94.30;;;;;;5054194;28;20040;-63
2023/03/18 12:41:28;;;;;;;9.57;5.10;;;17.50;95.50;;;;;;5065355;28;20056;-63
2023/03/18 12:44:06;;;;;;;12.63;4.70;;;17.60;95.60;;;;;;5046149;28;20049;-63
2023/03/18 12:47:06;;;;;;;7.38;5.10;;;17.70;95.10;;;;;;5066939;28;20051;-63
2023/03/18 12:49:44;;;;;;;10.15;4.78;;;17.80;94.50;;;;;;5068328;28;20145;-63
2023/03/18 12:52:31;;;;;;;10.10;4.50;;;17.80;93.60;;;;;;5064789;28;20522;-63
2023/03/18 12:55:06;;;;;;;9.35;4.65;;;17.70;93.50;;;;;;5064560;28;20053;-63
2023/03/18 12:57:48;;;;;;;12.13;4.70;;;17.70;94.40;;;;;;5072905;28;20044;-63
2023/03/18 13:00:38;;;;;;;8.43;4.45;;;17.80;95.50;;;;;;5072024;28;20644;-63
2023/03/18 13:03:22;;;;;;;8.23;4.93;;;17.80;93.70;;;;;;5069965;28;20049;-63
2023/03/18 13:06:03;;;;;;;8.45;4.35;;;17.90;93.40;;;;;;5052415;28;20040;-63
2023/03/18 13:08:54;;;;;;;10.38;4.40;;;17.90;93.80;;;;;;5064065;28;20041;-63
2023/03/18 13:11:47;;;;;;;8.30;4.63;;;18.00;94.10;;;;;;5054148;28;20044;-63
2023/03/18 13:14:58;;;;;;;8.27;4.25;;;18.20;94.20;;;;;;5064052;28;20417;-63
2023/03/18 13:17:39;;;;;;;8.07;5.00;;;18.30;93.60;;;;;;5049428;28;20045;-63
2023/03/18 13:20:18;;;;;;;6.55;4.30;;;18.30;93.70;;;;;;5069248;28;20098;-63
2023/03/18 13:23:01;;;;;;;12.02;4.57;;;18.30;93.10;;;;;;5064217;28;20053;-63
2023/03/18 13:25:43;;;;;;;;;;;18.30;93.90;;;;;;5067547;28;20513;-64
2023/03/18 13:28:21;;;;;;;8.98;4.07;;;18.40;92.50;;;;;;5068378;28;19924;-63
2023/03/18 13:30:56;;;;;;;7.43;4.40;;;18.40;92.40;;;;;;5054422;28;20459;-63
2023/03/18 13:33:53;;;;;;;10.05;4.65;;;18.40;92.30;;;;;;5070172;28;20036;-63
2023/03/18 13:36:48;;;;;;;9.32;4.88;;;18.50;92.40;;;;;;5068688;28;20859;-63
2023/03/18 13:39:48;;;;;;;10.95;4.18;;;18.50;92.40;;;;;;5060988;28;20029;-64